createdAt,value
2022-08-02T00:00:55.693Z,1.63
2022-08-02T00:03:24.883Z,0.88
2022-08-02T00:05:53.273Z,1.08
2022-08-02T00:08:21.242Z,1.10
2022-08-02T00:10:47.927Z,1.20
2022-08-02T00:13:14.402Z,1.38
2022-08-02T00:15:40.939Z,1.38
2022-08-02T00:18:07.416Z,1.40
2022-08-02T00:20:33.904Z,1.20
2022-08-02T00:23:00.407Z,1.45
2022-08-02T00:25:27.009Z,1.77
2022-08-02T00:27:53.462Z,1.52
2022-08-02T00:30:20.161Z,1.48
2022-08-02T00:32:46.618Z,1.70
2022-08-02T00:35:13.164Z,1.90
2022-08-02T00:37:41.191Z,1.80
2022-08-02T00:40:09.409Z,1.83
2022-08-02T00:42:35.884Z,1.90
2022-08-02T00:45:02.360Z,1.77
2022-08-02T00:47:28.933Z,1.58
2022-08-02T00:49:55.555Z,1.60
2022-08-02T00:52:24.426Z,1.83
2022-08-02T00:54:50.970Z,1.83
2022-08-02T00:57:17.554Z,1.90
2022-08-02T00:59:44.041Z,1.80
2022-08-02T01:02:10.859Z,1.83
2022-08-02T01:04:37.614Z,1.60
2022-08-02T01:07:12.951Z,2.05
2022-08-02T01:09:40.021Z,1.50
2022-08-02T01:12:06.976Z,1.70
2022-08-02T01:14:33.590Z,1.70
2022-08-02T01:17:06.027Z,1.50
2022-08-02T01:19:34.587Z,1.80
2022-08-02T01:22:51.286Z,1.57
2022-08-02T01:25:26.255Z,1.77
2022-08-02T01:28:26.222Z,1.90
2022-08-02T01:31:02.432Z,1.70
2022-08-02T01:33:41.468Z,1.67
2022-08-02T01:36:11.922Z,1.50
2022-08-02T01:38:44.905Z,1.48
2022-08-02T01:41:18.071Z,1.60
2022-08-02T01:43:46.498Z,1.50
2022-08-02T01:46:15.140Z,1.45
2022-08-02T01:48:43.949Z,1.60
2022-08-02T01:51:13.414Z,1.80
2022-08-02T01:53:43.974Z,1.52
2022-08-02T01:56:12.708Z,1.60
2022-08-02T01:58:40.669Z,1.60
2022-08-02T02:01:09.371Z,1.30
2022-08-02T02:03:42.606Z,1.80
2022-08-02T02:06:11.264Z,1.38
2022-08-02T02:08:41.590Z,1.20
2022-08-02T02:12:05.182Z,1.60
2022-08-02T02:14:00.466Z,2.00
2022-08-02T02:16:28.108Z,1.52
2022-08-02T02:18:55.338Z,1.35
2022-08-02T02:21:21.998Z,1.35
2022-08-02T02:23:50.069Z,1.83
2022-08-02T02:26:29.504Z,1.20
2022-08-02T02:29:01.332Z,1.65
2022-08-02T02:31:30.084Z,1.98
2022-08-02T02:34:02.786Z,1.80
2022-08-02T02:36:30.822Z,1.40
2022-08-02T02:39:01.759Z,1.67
2022-08-02T02:41:29.199Z,1.98
2022-08-02T02:43:58.515Z,1.60
2022-08-02T02:46:27.201Z,1.70
2022-08-02T02:48:55.115Z,1.70
2022-08-02T02:51:22.398Z,1.90
2022-08-02T02:54:30.874Z,1.60
2022-08-02T02:56:38.613Z,1.75
2022-08-02T02:59:07.172Z,1.50
2022-08-02T03:01:56.242Z,1.80
2022-08-02T03:04:21.940Z,2.13
2022-08-02T03:06:48.509Z,1.65
2022-08-02T03:09:15.163Z,1.70
2022-08-02T03:11:42.481Z,2.03
2022-08-02T03:14:10.506Z,1.85
2022-08-02T03:16:46.244Z,1.77
2022-08-02T03:19:13.561Z,1.70
2022-08-02T03:21:41.278Z,1.70
2022-08-02T03:24:08.174Z,1.60
2022-08-02T03:26:35.240Z,1.50
2022-08-02T03:29:09.808Z,1.57
2022-08-02T03:31:40.569Z,1.50
2022-08-02T03:34:07.400Z,1.30
2022-08-02T03:36:35.672Z,1.65
2022-08-02T03:39:03.607Z,1.40
2022-08-02T03:41:31.109Z,1.30
2022-08-02T03:43:58.755Z,1.52
2022-08-02T03:46:26.001Z,1.58
2022-08-02T03:48:53.184Z,1.60
2022-08-02T03:51:20.828Z,1.52
2022-08-02T03:53:49.025Z,1.40
2022-08-02T03:56:16.665Z,1.50
2022-08-02T03:58:48.512Z,1.33
2022-08-02T04:01:15.799Z,1.40
2022-08-02T04:03:42.306Z,1.80
2022-08-02T04:06:08.868Z,1.40
2022-08-02T04:08:38.528Z,1.35
2022-08-02T04:11:25.062Z,1.20
2022-08-02T04:13:52.504Z,1.38
2022-08-02T04:16:29.799Z,1.52
2022-08-02T04:19:01.254Z,1.43
2022-08-02T04:21:51.126Z,1.73
2022-08-02T04:24:24.709Z,1.35
2022-08-02T04:26:54.905Z,1.35
2022-08-02T04:29:26.611Z,1.60
2022-08-02T04:31:54.158Z,1.70
2022-08-02T04:34:21.505Z,1.27
2022-08-02T04:36:48.441Z,1.40
2022-08-02T04:39:15.198Z,1.10
2022-08-02T04:41:44.697Z,1.52
2022-08-02T04:44:12.143Z,1.47
2022-08-02T04:46:39.499Z,1.40
2022-08-02T04:49:06.303Z,1.40
2022-08-02T04:51:38.147Z,1.80
2022-08-02T04:54:10.017Z,1.60
2022-08-02T04:56:38.111Z,1.40
2022-08-02T04:59:05.423Z,1.50
2022-08-02T05:01:32.308Z,1.45
2022-08-02T05:04:00.256Z,1.38
2022-08-02T05:06:26.817Z,1.70
2022-08-02T05:08:53.847Z,1.60
2022-08-02T05:11:36.405Z,1.38
2022-08-02T05:14:05.648Z,1.17
2022-08-02T05:16:32.644Z,1.88
2022-08-02T05:19:01.031Z,1.60
2022-08-02T05:21:27.864Z,1.20
2022-08-02T05:23:54.490Z,1.42
2022-08-02T05:26:21.060Z,1.10
2022-08-02T05:28:47.799Z,1.60
2022-08-02T05:31:14.269Z,1.58
2022-08-02T05:33:40.810Z,1.10
2022-08-02T05:36:09.357Z,1.42
2022-08-02T05:38:37.342Z,1.58
2022-08-02T05:41:04.907Z,1.42
2022-08-02T05:43:31.415Z,1.17
2022-08-02T05:45:57.956Z,1.37
2022-08-02T05:48:30.673Z,1.30
2022-08-02T05:51:09.389Z,1.25
2022-08-02T05:53:41.223Z,1.27
2022-08-02T05:56:33.760Z,1.38
2022-08-02T05:59:04.138Z,1.60
2022-08-02T06:01:37.291Z,1.08
2022-08-02T06:04:33.151Z,1.33
2022-08-02T06:07:43.981Z,1.20
2022-08-02T06:13:41.618Z,0.90
2022-08-02T06:16:14.152Z,1.00
2022-08-02T06:18:42.903Z,0.90
2022-08-02T06:30:27.675Z,1.02
2022-08-02T06:32:54.860Z,1.58
2022-08-02T06:35:21.659Z,2.05
2022-08-02T06:37:58.877Z,1.80
2022-08-02T06:40:32.228Z,1.83
2022-08-02T06:43:05.711Z,1.30
2022-08-02T06:45:33.781Z,1.20
2022-08-02T06:48:01.007Z,1.63
2022-08-02T06:50:27.935Z,1.80
2022-08-02T06:52:54.430Z,2.00
2022-08-02T06:55:20.973Z,1.85
2022-08-02T06:57:47.439Z,2.00
2022-08-02T07:00:14.953Z,2.70
2022-08-02T07:02:41.808Z,2.20
2022-08-02T07:05:09.169Z,2.40
2022-08-02T07:07:35.694Z,2.70
2022-08-02T07:10:02.303Z,2.58
2022-08-02T07:12:30.455Z,2.97
2022-08-02T07:14:57.707Z,3.03
2022-08-02T07:17:25.101Z,3.13
2022-08-02T07:19:51.703Z,3.40
2022-08-02T07:22:20.155Z,3.58
2022-08-02T07:24:46.732Z,3.45
2022-08-02T07:27:13.789Z,3.10
2022-08-02T07:29:45.501Z,3.00
2022-08-02T07:32:16.231Z,3.42
2022-08-02T07:34:44.767Z,3.70
2022-08-02T07:37:29.837Z,3.42
2022-08-02T07:40:12.686Z,3.70
2022-08-02T07:42:40.988Z,4.07
2022-08-02T07:45:07.978Z,3.95
2022-08-02T07:47:38.329Z,3.90
2022-08-02T07:50:06.468Z,3.53
2022-08-02T07:52:32.955Z,3.88
2022-08-02T07:54:59.441Z,4.00
2022-08-02T07:57:26.107Z,4.68
2022-08-02T07:59:52.709Z,4.72
2022-08-02T08:02:19.186Z,5.00
2022-08-02T08:04:45.652Z,5.10
2022-08-02T08:07:12.155Z,5.27
2022-08-02T08:09:41.877Z,5.72
2022-08-02T08:12:10.166Z,4.80
2022-08-02T08:14:37.942Z,5.60
2022-08-02T08:17:05.935Z,5.55
2022-08-02T08:19:49.992Z,5.13
2022-08-02T08:22:18.469Z,4.95
2022-08-02T08:24:45.540Z,4.43
2022-08-02T08:27:14.800Z,4.20
2022-08-02T08:29:42.688Z,4.22
2022-08-02T08:32:14.093Z,3.77
2022-08-02T08:34:42.645Z,3.35
2022-08-02T08:37:09.217Z,3.13
2022-08-02T08:39:35.732Z,3.70
2022-08-02T08:42:22.254Z,2.70
2022-08-02T08:44:48.796Z,2.77
2022-08-02T08:47:15.684Z,2.60
2022-08-02T08:49:52.587Z,2.15
2022-08-02T08:52:21.393Z,1.77
2022-08-02T08:54:48.940Z,2.15
2022-08-02T08:57:18.087Z,2.00
2022-08-02T08:59:45.652Z,2.25
2022-08-02T09:02:17.890Z,2.17
2022-08-02T09:04:52.982Z,1.75
2022-08-02T09:07:22.094Z,1.42
2022-08-02T09:09:48.595Z,2.10
2022-08-02T09:12:17.341Z,2.00
2022-08-02T09:14:43.868Z,1.75
2022-08-02T09:17:14.338Z,1.70
2022-08-02T09:19:45.945Z,1.80
2022-08-02T09:22:15.605Z,1.97
2022-08-02T09:24:50.007Z,2.22
2022-08-02T09:27:18.791Z,1.70
2022-08-02T09:30:12.621Z,1.70
2022-08-02T09:32:46.552Z,2.45
2022-08-02T09:35:13.991Z,2.40
2022-08-02T09:37:41.386Z,2.10
2022-08-02T09:40:12.323Z,2.10
2022-08-02T09:42:58.069Z,2.65
2022-08-02T09:45:30.438Z,2.13
2022-08-02T09:48:01.030Z,2.90
2022-08-02T09:50:27.596Z,2.45
2022-08-02T09:52:56.608Z,3.30
2022-08-02T09:55:23.799Z,2.85
2022-08-02T09:57:51.340Z,4.00
2022-08-02T10:00:31.588Z,4.23
2022-08-02T10:03:06.791Z,3.10
2022-08-02T10:05:56.100Z,3.70
2022-08-02T10:08:33.062Z,3.75
2022-08-02T10:11:01.199Z,3.17
2022-08-02T10:13:33.554Z,3.00
2022-08-02T10:16:02.581Z,3.50
2022-08-02T10:18:38.848Z,3.33
2022-08-02T10:21:12.542Z,3.15
2022-08-02T10:23:40.305Z,3.20
2022-08-02T10:26:08.026Z,3.17
2022-08-02T10:28:35.894Z,3.72
2022-08-02T10:31:05.731Z,2.90
2022-08-02T10:33:36.469Z,3.20
2022-08-02T10:36:07.453Z,2.53
2022-08-02T10:38:35.477Z,2.60
2022-08-02T10:41:02.062Z,3.08
2022-08-02T10:43:31.652Z,2.67
2022-08-02T10:46:20.536Z,2.80
2022-08-02T10:49:36.250Z,2.63
2022-08-02T10:51:55.305Z,1.60
2022-08-02T10:54:24.477Z,2.42
2022-08-02T10:56:53.274Z,2.20
2022-08-02T10:59:28.184Z,1.90
2022-08-02T11:02:02.481Z,2.00
2022-08-02T11:04:32.247Z,1.60
2022-08-02T11:07:10.015Z,2.13
2022-08-02T11:09:38.534Z,1.60
2022-08-02T11:12:09.496Z,1.70
2022-08-02T11:14:38.509Z,1.50
2022-08-02T11:17:06.819Z,1.43
2022-08-02T11:19:35.041Z,1.38
2022-08-02T11:22:04.323Z,1.52
2022-08-02T11:24:31.987Z,1.30
2022-08-02T11:27:00.442Z,1.30
2022-08-02T11:29:38.285Z,1.00
2022-08-02T11:32:06.604Z,1.08
2022-08-02T11:34:37.644Z,1.08
2022-08-02T11:37:06.281Z,0.70
2022-08-02T11:39:32.900Z,0.77
2022-08-02T11:42:00.803Z,0.70
2022-08-02T11:44:40.532Z,0.90
2022-08-02T11:47:09.434Z,0.95
2022-08-02T11:49:38.664Z,1.00
2022-08-02T11:52:08.133Z,1.00
2022-08-02T11:54:40.590Z,0.87
2022-08-02T12:37:40.057Z,0.90
2022-08-02T12:48:13.995Z,0.82
2022-08-02T12:50:40.652Z,0.90
2022-08-02T12:53:17.137Z,1.10
2022-08-02T12:56:01.245Z,1.02
2022-08-02T12:58:48.937Z,1.30
2022-08-02T13:01:22.813Z,0.93
2022-08-02T13:04:07.677Z,0.80
2022-08-02T13:06:45.138Z,1.05
2022-08-02T13:09:15.098Z,2.35
2022-08-02T13:11:42.949Z,0.90
2022-08-02T13:14:10.506Z,0.98
2022-08-02T13:16:37.022Z,1.10
2022-08-02T13:19:03.506Z,1.20
2022-08-02T13:21:41.175Z,2.33
2022-08-02T13:24:32.969Z,1.13
2022-08-02T13:27:05.168Z,1.40
2022-08-02T13:29:35.457Z,1.02
2022-08-02T13:32:02.182Z,1.00
2022-08-02T13:34:28.811Z,1.00
2022-08-02T13:36:55.354Z,1.77
2022-08-02T13:39:21.872Z,1.63
2022-08-02T13:41:48.443Z,1.20
2022-08-02T13:44:15.122Z,0.90
2022-08-02T13:49:49.712Z,0.63
2022-08-02T13:52:21.053Z,0.70
2022-08-02T13:54:53.676Z,0.80
2022-08-02T13:58:18.646Z,0.75
2022-08-02T14:04:08.908Z,0.70
2022-08-02T14:06:43.399Z,0.95
2022-08-02T14:09:15.478Z,0.70
2022-08-02T14:11:44.120Z,1.00
2022-08-02T14:14:15.972Z,0.90
2022-08-02T14:16:44.558Z,1.00
2022-08-02T14:19:16.056Z,0.85
2022-08-02T14:21:46.337Z,0.90
2022-08-02T14:24:15.431Z,1.45
2022-08-02T14:26:42.514Z,0.80
2022-08-02T14:29:12.001Z,0.60
2022-08-02T14:31:43.705Z,1.20
2022-08-02T14:34:11.703Z,0.90
2022-08-02T14:36:39.120Z,0.73
2022-08-02T14:39:05.911Z,1.00
2022-08-02T14:41:58.207Z,0.90
2022-08-02T14:47:51.966Z,1.08
2022-08-02T14:50:19.093Z,1.00
2022-08-02T14:52:46.714Z,0.90
2022-08-02T14:55:17.424Z,1.10
2022-08-02T14:57:43.912Z,1.13
2022-08-02T15:00:10.978Z,0.98
2022-08-02T15:02:37.726Z,1.10
2022-08-02T15:05:04.641Z,0.95
2022-08-02T15:07:31.191Z,0.90
2022-08-02T15:09:57.723Z,1.10
2022-08-02T15:12:24.309Z,1.15
2022-08-02T15:14:50.867Z,1.00
2022-08-02T15:17:17.389Z,1.13
2022-08-02T15:19:57.889Z,0.90
2022-08-02T15:22:27.134Z,1.25
2022-08-02T15:24:56.051Z,0.80
2022-08-02T15:27:22.738Z,0.80
2022-08-02T15:29:49.557Z,1.17
2022-08-02T15:32:19.713Z,0.97
2022-08-02T15:34:47.520Z,0.77
2022-08-02T15:37:14.042Z,1.10
2022-08-02T15:39:40.599Z,0.90
2022-08-02T15:42:07.266Z,0.60
2022-08-02T15:44:33.856Z,0.73
2022-08-02T15:47:00.631Z,0.90
2022-08-02T15:49:27.898Z,0.80
2022-08-02T15:51:55.110Z,0.73
2022-08-02T15:54:21.736Z,0.77
2022-08-02T15:56:49.038Z,0.70
2022-08-02T15:59:15.651Z,0.80
2022-08-02T16:01:46.664Z,1.08
2022-08-02T16:04:15.176Z,0.77
2022-08-02T16:06:44.285Z,0.77
2022-08-02T16:09:11.275Z,1.00
2022-08-02T16:11:37.943Z,1.10
2022-08-02T16:14:05.199Z,0.88
2022-08-02T16:16:35.541Z,1.02
2022-08-02T16:19:47.159Z,1.00
2022-08-02T16:21:54.509Z,0.90
2022-08-02T16:24:21.833Z,0.90
2022-08-02T16:26:48.754Z,0.73
2022-08-02T16:29:18.860Z,0.88
2022-08-02T16:31:48.655Z,0.88
2022-08-02T16:34:15.941Z,0.70
2022-08-02T16:36:42.726Z,0.70
2022-08-02T16:39:09.304Z,0.73
2022-08-02T16:41:51.168Z,0.68
2022-08-02T16:44:27.103Z,0.80
2022-08-02T16:47:00.915Z,0.67
2022-08-02T16:50:04.429Z,0.80
2022-08-02T16:52:15.036Z,0.80
2022-08-02T16:54:42.254Z,0.68
2022-08-02T16:57:08.822Z,0.77
2022-08-02T16:59:41.857Z,0.80
2022-08-02T17:02:18.111Z,1.00
2022-08-02T17:04:47.497Z,0.90
2022-08-02T17:08:10.400Z,0.82
2022-08-02T17:10:02.217Z,0.70
2022-08-02T17:12:31.869Z,0.60
2022-08-02T17:15:09.021Z,1.17
2022-08-02T17:17:51.378Z,0.60
2022-08-02T17:20:20.611Z,0.77
2022-08-02T17:24:08.612Z,0.80
2022-08-02T17:26:01.944Z,0.87
2022-08-02T17:28:35.428Z,1.20
2022-08-02T17:34:13.429Z,0.90
2022-08-02T17:36:44.692Z,0.90
2022-08-02T17:39:16.301Z,1.00
2022-08-02T17:44:37.025Z,0.73
2022-08-02T17:47:07.197Z,2.45
2022-08-02T17:50:05.704Z,0.73
2022-08-02T17:52:50.305Z,0.73
2022-08-02T17:55:20.181Z,0.98
2022-08-02T17:57:59.548Z,1.02
2022-08-02T18:00:35.231Z,0.90
2022-08-02T18:03:15.101Z,0.60
2022-08-02T18:15:37.498Z,0.70
2022-08-02T18:18:06.694Z,0.70
2022-08-02T18:20:33.344Z,0.70
2022-08-02T18:23:00.097Z,0.90
2022-08-02T18:25:54.926Z,0.90
2022-08-02T18:28:47.786Z,0.85
2022-08-02T18:31:22.252Z,0.73
2022-08-02T18:33:57.762Z,0.90
2022-08-02T18:36:27.956Z,0.90
2022-08-02T18:38:54.536Z,0.82
2022-08-02T18:41:24.788Z,0.55
2022-08-02T18:43:59.008Z,0.60
2022-08-02T18:46:30.381Z,0.70
2022-08-02T18:52:15.639Z,0.55
2022-08-02T18:54:54.186Z,0.63
2022-08-02T18:58:01.782Z,0.68
2022-08-02T19:00:08.986Z,0.80
2022-08-02T19:02:40.384Z,0.65
2022-08-02T19:05:52.372Z,0.70
2022-08-02T19:07:57.994Z,0.60
2022-08-02T19:10:50.043Z,0.73
2022-08-02T19:13:18.955Z,0.60
2022-08-02T19:15:45.801Z,1.20
2022-08-02T19:18:14.551Z,0.80
2022-08-02T19:23:24.130Z,0.80
2022-08-02T19:25:55.217Z,0.90
2022-08-02T19:28:26.262Z,0.85
2022-08-02T19:30:56.897Z,0.75
2022-08-02T19:36:11.868Z,0.80
2022-08-02T19:38:43.813Z,0.73
2022-08-02T19:41:13.261Z,0.93
2022-08-02T19:44:26.859Z,1.27
2022-08-02T19:46:26.786Z,0.93
2022-08-02T19:48:53.372Z,1.33
2022-08-02T19:51:49.490Z,1.10
2022-08-02T19:54:12.110Z,0.70
2022-08-02T19:56:41.896Z,0.90
2022-08-02T20:10:49.960Z,0.70
2022-08-02T20:25:10.729Z,0.80
2022-08-02T20:31:36.290Z,1.20
2022-08-02T20:34:04.257Z,0.77
2022-08-02T20:36:30.824Z,0.63
2022-08-02T20:38:57.429Z,0.90
2022-08-02T20:41:36.809Z,0.60
2022-08-02T20:44:15.999Z,0.90
2022-08-02T20:46:56.555Z,0.70
2022-08-02T20:52:23.103Z,0.60
2022-08-02T20:54:51.219Z,0.50
2022-08-02T20:57:18.806Z,0.57
2022-08-02T20:59:45.277Z,0.65
2022-08-02T21:02:20.292Z,0.60
2022-08-02T21:04:47.032Z,0.83
2022-08-02T21:07:13.507Z,0.52
2022-08-02T21:09:52.780Z,1.10
2022-08-02T21:12:34.263Z,0.60
2022-08-02T21:15:01.110Z,0.35
2022-08-02T21:17:42.324Z,0.47
2022-08-02T21:20:16.763Z,0.60
2022-08-02T21:22:43.564Z,0.60
2022-08-02T21:25:11.932Z,0.60
2022-08-02T21:27:53.290Z,0.57
2022-08-02T21:30:24.224Z,0.60
2022-08-02T21:32:54.404Z,0.40
2022-08-02T21:35:22.739Z,0.60
2022-08-02T21:37:50.257Z,0.70
2022-08-02T21:40:25.164Z,0.73
2022-08-02T21:42:51.648Z,0.67
2022-08-02T21:45:19.974Z,0.60
2022-08-02T21:47:46.815Z,0.60
2022-08-02T21:50:16.451Z,0.60
2022-08-02T21:52:52.049Z,0.60
2022-08-02T21:55:23.914Z,0.43
2022-08-02T21:57:51.001Z,0.60
2022-08-02T22:00:17.630Z,0.73
2022-08-02T22:02:55.180Z,0.60
2022-08-02T22:05:21.908Z,0.50
2022-08-02T22:07:48.370Z,0.60
2022-08-02T22:10:17.350Z,0.65
2022-08-02T22:12:43.911Z,0.40
2022-08-02T22:15:11.604Z,0.60
2022-08-02T22:17:51.574Z,0.50
2022-08-02T22:20:21.114Z,0.67
2022-08-02T22:22:50.674Z,0.63
2022-08-02T22:25:26.488Z,0.70
2022-08-02T22:28:35.209Z,0.60
2022-08-02T22:30:52.535Z,0.40
2022-08-02T22:33:37.810Z,0.70
2022-08-02T22:36:04.824Z,0.40
2022-08-02T22:38:31.296Z,0.50
2022-08-02T22:40:57.843Z,0.35
2022-08-02T22:43:24.341Z,0.30
2022-08-02T22:45:51.193Z,0.50
2022-08-02T22:48:17.895Z,0.50
2022-08-02T22:50:44.534Z,0.50
2022-08-02T22:53:10.985Z,0.40
2022-08-02T22:55:41.747Z,0.50
2022-08-02T22:58:09.246Z,0.40
2022-08-02T22:58:48.535Z,0.68
2022-08-02T22:58:56.350Z,0.70
2022-08-02T23:00:35.756Z,0.80
2022-08-02T23:03:02.878Z,0.30
2022-08-02T23:05:30.183Z,0.57
2022-08-02T23:07:56.755Z,0.50
2022-08-02T23:10:23.729Z,0.40
2022-08-02T23:12:51.408Z,0.30
2022-08-02T23:15:17.927Z,0.40
2022-08-02T23:18:03.007Z,0.60
2022-08-02T23:20:29.564Z,0.70
2022-08-02T23:22:56.100Z,0.23
2022-08-02T23:25:22.752Z,0.50
2022-08-02T23:27:51.185Z,0.40
2022-08-02T23:30:18.953Z,0.40
2022-08-02T23:32:47.004Z,0.50
2022-08-02T23:35:17.075Z,0.30
2022-08-02T23:37:59.322Z,0.63
2022-08-02T23:40:39.866Z,0.30
2022-08-02T23:43:13.470Z,0.30
2022-08-02T23:45:42.762Z,1.48
2022-08-02T23:48:09.225Z,0.67
2022-08-02T23:50:35.705Z,0.35
2022-08-02T23:53:02.139Z,0.50
2022-08-02T23:55:28.670Z,0.43
2022-08-02T23:57:55.120Z,0.30
